createdAt,value
2018-04-07T00:00:35.807Z,7.47
2018-04-07T00:03:03.217Z,7.45
2018-04-07T00:05:30.637Z,7.36
2018-04-07T00:07:58.038Z,7.35
2018-04-07T00:10:25.700Z,7.40
2018-04-07T00:12:53.104Z,7.41
2018-04-07T00:15:20.532Z,7.33
2018-04-07T00:17:47.930Z,7.34
2018-04-07T00:20:15.338Z,7.35
2018-04-07T00:22:42.743Z,7.45
2018-04-07T00:25:10.126Z,7.51
2018-04-07T00:27:37.535Z,7.35
2018-04-07T00:30:04.969Z,6.68
2018-04-07T00:32:32.414Z,6.32
2018-04-07T00:34:59.938Z,6.22
2018-04-07T00:37:27.359Z,6.25
2018-04-07T00:39:54.781Z,6.34
2018-04-07T00:42:22.182Z,6.28
2018-04-07T00:44:49.557Z,6.50
2018-04-07T00:47:16.990Z,6.49
2018-04-07T00:49:44.367Z,6.70
2018-04-07T00:52:11.788Z,6.77
2018-04-07T00:54:39.241Z,6.73
2018-04-07T00:57:06.682Z,6.70
2018-04-07T00:59:34.078Z,6.57
2018-04-07T01:02:01.486Z,6.48
2018-04-07T01:04:28.883Z,6.38
2018-04-07T01:06:56.273Z,6.46
2018-04-07T01:09:23.707Z,6.42
2018-04-07T01:11:51.137Z,6.23
2018-04-07T01:14:18.597Z,6.17
2018-04-07T01:16:45.989Z,6.31
2018-04-07T01:19:13.393Z,6.21
2018-04-07T01:21:40.790Z,6.01
2018-04-07T01:24:08.187Z,5.99
2018-04-07T01:26:35.585Z,6.18
2018-04-07T01:29:03.063Z,6.19
2018-04-07T01:31:31.461Z,6.23
2018-04-07T01:33:58.886Z,6.15
2018-04-07T01:36:26.341Z,6.20
2018-04-07T01:38:53.798Z,6.05
2018-04-07T01:41:21.225Z,5.81
2018-04-07T01:43:48.634Z,5.77
2018-04-07T01:46:16.034Z,5.72
2018-04-07T01:48:43.432Z,5.82
2018-04-07T01:51:10.823Z,5.59
2018-04-07T01:53:38.263Z,5.53
2018-04-07T01:56:05.699Z,5.43
2018-04-07T01:58:33.157Z,5.33
2018-04-07T02:01:00.603Z,5.45
2018-04-07T02:03:28.151Z,5.66
2018-04-07T02:05:55.546Z,5.88
2018-04-07T02:08:23.909Z,6.06
2018-04-07T02:10:51.387Z,6.16
2018-04-07T02:13:18.809Z,6.20
2018-04-07T02:15:46.197Z,6.17
2018-04-07T02:20:47.449Z,6.21
2018-04-07T02:23:14.845Z,6.32
2018-04-07T02:25:42.275Z,6.37
2018-04-07T02:28:09.731Z,6.39
2018-04-07T02:30:37.193Z,6.44
2018-04-07T02:33:04.645Z,6.49
2018-04-07T02:35:32.102Z,6.37
2018-04-07T02:37:59.553Z,5.97
2018-04-07T02:40:27.001Z,5.37
2018-04-07T02:42:54.472Z,5.07
2018-04-07T02:45:21.924Z,5.08
2018-04-07T02:47:49.378Z,4.95
2018-04-07T02:50:16.867Z,4.83
2018-04-07T02:52:44.294Z,4.86
2018-04-07T02:55:11.772Z,4.65
2018-04-07T02:57:39.211Z,4.55
2018-04-07T03:00:06.665Z,4.51
2018-04-07T03:02:34.128Z,4.55
2018-04-07T03:05:01.594Z,4.62
2018-04-07T03:07:29.025Z,4.63
2018-04-07T03:09:56.499Z,4.34
2018-04-07T03:12:23.952Z,4.35
2018-04-07T03:14:51.414Z,4.22
2018-04-07T03:17:18.870Z,4.18
2018-04-07T03:19:46.346Z,4.27
2018-04-07T03:22:13.806Z,4.38
2018-04-07T03:24:41.246Z,4.49
2018-04-07T03:27:09.457Z,4.57
2018-04-07T03:29:36.866Z,4.82
2018-04-07T03:32:05.125Z,4.99
2018-04-07T03:34:32.526Z,5.11
2018-04-07T03:36:59.928Z,5.09
2018-04-07T03:39:27.330Z,5.02
2018-04-07T03:41:54.734Z,5.16
2018-04-07T03:44:22.150Z,5.22
2018-04-07T03:46:49.587Z,5.39
2018-04-07T03:49:17.073Z,5.37
2018-04-07T03:51:44.532Z,5.38
2018-04-07T03:54:11.977Z,5.26
2018-04-07T03:56:39.431Z,5.03
2018-04-07T04:01:40.630Z,4.40
2018-04-07T04:04:08.048Z,4.21
2018-04-07T04:06:36.162Z,3.99
2018-04-07T04:09:03.582Z,3.94
2018-04-07T04:11:30.967Z,3.97
2018-04-07T04:13:58.800Z,3.98
2018-04-07T04:16:26.185Z,4.02
2018-04-07T04:18:53.641Z,4.12
2018-04-07T04:21:21.087Z,4.20
2018-04-07T04:23:48.534Z,4.24
2018-04-07T04:26:15.986Z,4.14
2018-04-07T04:28:43.456Z,4.31
2018-04-07T04:31:10.902Z,4.32
2018-04-07T04:33:38.358Z,4.44
2018-04-07T04:36:05.836Z,4.65
2018-04-07T04:38:33.266Z,4.77
2018-04-07T04:41:00.747Z,4.68
2018-04-07T04:43:28.222Z,4.43
2018-04-07T04:45:55.649Z,4.56
2018-04-07T04:48:23.116Z,4.57
2018-04-07T04:50:50.586Z,4.66
2018-04-07T04:53:18.034Z,4.50
2018-04-07T04:55:45.479Z,4.51
2018-04-07T04:58:12.937Z,4.77
2018-04-07T05:00:40.852Z,4.85
2018-04-07T05:03:08.315Z,4.94
2018-04-07T05:05:35.722Z,4.93
2018-04-07T05:08:03.191Z,4.98
2018-04-07T05:10:30.578Z,5.06
2018-04-07T05:12:58.030Z,5.05
2018-04-07T05:15:25.468Z,5.02
2018-04-07T05:17:52.928Z,4.96
2018-04-07T05:20:20.401Z,4.96
2018-04-07T05:22:47.846Z,4.94
2018-04-07T05:25:15.276Z,4.99
2018-04-07T05:27:42.749Z,5.06
2018-04-07T05:30:10.325Z,5.08
2018-04-07T05:32:37.759Z,4.99
2018-04-07T05:35:05.139Z,5.05
2018-04-07T05:37:32.586Z,5.18
2018-04-07T05:40:00.056Z,5.17
2018-04-07T05:42:27.499Z,5.29
2018-04-07T05:44:54.959Z,5.39
2018-04-07T05:47:22.401Z,5.51
2018-04-07T05:49:49.872Z,5.69
2018-04-07T05:52:17.328Z,5.89
2018-04-07T05:54:44.825Z,5.77
2018-04-07T05:57:12.242Z,5.78
2018-04-07T05:59:40.161Z,5.92
2018-04-07T06:02:07.559Z,5.95
2018-04-07T06:04:35.071Z,6.05
2018-04-07T06:07:02.483Z,6.46
2018-04-07T06:09:29.941Z,7.09
2018-04-07T06:11:57.318Z,7.39
2018-04-07T06:14:24.760Z,7.36
2018-04-07T06:16:52.226Z,7.21
2018-04-07T06:19:19.681Z,7.20
2018-04-07T06:21:47.118Z,7.31
2018-04-07T06:24:14.575Z,7.48
2018-04-07T06:26:42.044Z,7.55
2018-04-07T06:29:09.500Z,7.73
2018-04-07T06:31:36.958Z,7.97
2018-04-07T06:34:04.406Z,8.04
2018-04-07T06:36:31.856Z,8.23
2018-04-07T06:38:59.343Z,8.42
2018-04-07T06:41:26.885Z,8.43
2018-04-07T06:43:54.353Z,8.64
2018-04-07T06:46:21.860Z,8.79
2018-04-07T06:48:49.277Z,9.03
2018-04-07T06:51:16.733Z,9.06
2018-04-07T06:53:44.140Z,9.25
2018-04-07T06:56:12.306Z,9.29
2018-04-07T06:58:39.716Z,9.27
2018-04-07T07:01:07.360Z,9.44
2018-04-07T07:03:34.844Z,9.58
2018-04-07T07:06:02.283Z,9.77
2018-04-07T07:08:29.760Z,9.86
2018-04-07T07:10:57.220Z,9.91
2018-04-07T07:13:24.669Z,9.95
2018-04-07T07:15:52.130Z,10.09
2018-04-07T07:18:19.645Z,10.06
2018-04-07T07:20:47.118Z,10.13
2018-04-07T07:23:14.499Z,10.31
2018-04-07T07:25:42.070Z,10.54
2018-04-07T07:28:09.511Z,10.57
2018-04-07T07:30:36.972Z,10.83
2018-04-07T07:33:04.431Z,10.95
2018-04-07T07:35:31.886Z,11.09
2018-04-07T07:37:59.319Z,11.23
2018-04-07T07:40:26.796Z,11.35
2018-04-07T07:42:54.173Z,11.35
2018-04-07T07:45:21.632Z,11.27
2018-04-07T07:47:49.082Z,11.34
2018-04-07T07:50:16.633Z,11.55
2018-04-07T07:52:44.612Z,11.58
2018-04-07T07:55:12.037Z,11.79
2018-04-07T07:57:39.519Z,11.77
2018-04-07T08:00:07.693Z,11.72
2018-04-07T08:02:35.143Z,11.96
2018-04-07T08:05:02.601Z,12.00
2018-04-07T08:07:30.059Z,12.11
2018-04-07T08:09:57.524Z,12.16
2018-04-07T08:12:24.981Z,12.05
2018-04-07T08:14:52.441Z,12.25
2018-04-07T08:17:19.912Z,12.40
2018-04-07T08:19:47.376Z,12.50
2018-04-07T08:22:15.634Z,12.42
2018-04-07T08:24:43.082Z,12.59
2018-04-07T08:27:10.570Z,12.76
2018-04-07T08:29:37.998Z,12.93
2018-04-07T08:32:05.595Z,13.09
2018-04-07T08:34:33.032Z,13.35
2018-04-07T08:37:00.489Z,13.32
2018-04-07T08:39:28.451Z,13.36
2018-04-07T08:41:55.910Z,13.52
2018-04-07T08:44:23.368Z,13.35
2018-04-07T08:46:50.823Z,13.43
2018-04-07T08:49:18.379Z,13.41
2018-04-07T08:51:46.758Z,13.58
2018-04-07T08:54:14.150Z,13.69
2018-04-07T08:56:41.569Z,13.86
2018-04-07T08:59:09.043Z,13.99
2018-04-07T09:01:36.597Z,14.06
2018-04-07T09:04:04.048Z,14.08
2018-04-07T09:06:31.515Z,14.06
2018-04-07T09:08:58.963Z,14.27
2018-04-07T09:11:26.784Z,14.25
2018-04-07T09:13:54.186Z,14.71
2018-04-07T09:16:21.672Z,14.79
2018-04-07T09:18:49.053Z,14.65
2018-04-07T09:21:16.560Z,14.89
2018-04-07T09:23:43.935Z,14.89
2018-04-07T09:26:11.345Z,14.89
2018-04-07T09:28:38.742Z,14.70
2018-04-07T09:31:11.633Z,14.90
2018-04-07T09:33:39.037Z,15.00
2018-04-07T09:36:06.491Z,14.92
2018-04-07T09:38:33.890Z,14.96
2018-04-07T09:41:01.285Z,15.42
2018-04-07T09:43:28.677Z,15.42
2018-04-07T09:45:56.100Z,15.55
2018-04-07T09:48:23.502Z,15.62
2018-04-07T09:50:50.896Z,15.83
2018-04-07T09:53:19.193Z,15.93
2018-04-07T09:55:46.619Z,15.77
2018-04-07T09:58:14.111Z,16.02
2018-04-07T10:00:47.246Z,16.12
2018-04-07T10:03:21.829Z,16.18
2018-04-07T10:05:49.814Z,16.15
2018-04-07T10:08:17.561Z,16.21
2018-04-07T10:10:44.962Z,16.14
2018-04-07T10:13:12.376Z,16.34
2018-04-07T10:15:39.798Z,16.29
2018-04-07T10:18:07.221Z,16.40
2018-04-07T10:20:34.623Z,16.55
2018-04-07T10:23:02.040Z,16.49
2018-04-07T10:25:29.440Z,16.73
2018-04-07T10:27:56.846Z,16.93
2018-04-07T10:30:24.243Z,17.03
2018-04-07T10:32:51.655Z,17.05
2018-04-07T10:35:19.057Z,16.97
2018-04-07T10:37:46.462Z,17.28
2018-04-07T10:40:14.482Z,17.42
2018-04-07T10:42:41.891Z,17.74
2018-04-07T10:45:09.294Z,18.02
2018-04-07T10:47:36.702Z,17.88
2018-04-07T10:50:04.109Z,17.93
2018-04-07T10:52:31.521Z,18.01
2018-04-07T10:54:58.915Z,18.05
2018-04-07T10:57:26.325Z,18.05
2018-04-07T10:59:53.739Z,18.44
2018-04-07T11:02:22.157Z,18.20
2018-04-07T11:04:49.553Z,18.12
2018-04-07T11:07:16.971Z,18.01
2018-04-07T11:09:44.380Z,18.25
2018-04-07T11:12:11.770Z,18.50
2018-04-07T11:14:39.176Z,18.68
2018-04-07T11:17:06.569Z,18.61
2018-04-07T11:19:33.988Z,18.84
2018-04-07T11:22:01.378Z,18.86
2018-04-07T11:24:28.798Z,18.56
2018-04-07T11:26:56.185Z,18.97
2018-04-07T11:29:23.602Z,19.13
2018-04-07T11:31:50.997Z,19.25
2018-04-07T11:34:18.445Z,19.22
2018-04-07T11:36:45.818Z,19.23
2018-04-07T11:39:13.239Z,19.30
2018-04-07T11:41:40.641Z,19.39
2018-04-07T11:44:08.062Z,19.43
2018-04-07T11:46:35.451Z,19.28
2018-04-07T11:49:02.879Z,19.14
2018-04-07T11:51:30.274Z,19.50
2018-04-07T11:53:57.685Z,19.54
2018-04-07T11:56:25.083Z,19.66
2018-04-07T11:58:52.498Z,19.86
2018-04-07T12:01:19.877Z,20.24
2018-04-07T12:03:47.426Z,20.10
2018-04-07T12:06:14.814Z,20.09
2018-04-07T12:08:42.236Z,20.35
2018-04-07T12:11:09.657Z,20.46
2018-04-07T12:13:37.053Z,20.73
2018-04-07T12:16:04.458Z,20.65
2018-04-07T12:18:31.854Z,20.67
2018-04-07T12:20:59.261Z,20.88
2018-04-07T12:23:26.751Z,21.07
2018-04-07T12:25:54.146Z,20.82
2018-04-07T12:28:21.575Z,20.77
2018-04-07T12:30:49.012Z,20.51
2018-04-07T12:33:16.412Z,20.50
2018-04-07T12:35:43.821Z,20.75
2018-04-07T12:38:11.522Z,20.99
2018-04-07T12:40:38.914Z,20.99
2018-04-07T12:43:06.361Z,21.01
2018-04-07T12:45:33.798Z,21.08
2018-04-07T12:48:01.215Z,21.30
2018-04-07T12:50:28.626Z,21.21
2018-04-07T12:52:56.196Z,21.29
2018-04-07T12:55:23.629Z,21.57
2018-04-07T12:57:51.067Z,21.78
2018-04-07T13:00:18.502Z,21.65
2018-04-07T13:02:45.926Z,21.41
2018-04-07T13:05:13.330Z,21.38
2018-04-07T13:07:40.731Z,21.49
2018-04-07T13:10:08.532Z,21.78
2018-04-07T13:12:35.937Z,21.57
2018-04-07T13:15:03.329Z,21.53
2018-04-07T13:17:30.748Z,21.48
2018-04-07T13:19:58.219Z,21.56
2018-04-07T13:22:25.675Z,21.56
2018-04-07T13:24:53.121Z,21.71
2018-04-07T13:27:20.596Z,21.68
2018-04-07T13:29:47.966Z,21.84
2018-04-07T13:32:15.363Z,21.94
2018-04-07T13:34:42.763Z,21.93
2018-04-07T13:37:10.198Z,21.76
2018-04-07T13:39:37.622Z,21.81
2018-04-07T13:42:05.027Z,21.67
2018-04-07T13:44:32.466Z,21.79
2018-04-07T13:46:59.927Z,22.05
2018-04-07T13:49:27.398Z,22.08
2018-04-07T13:51:54.841Z,22.10
2018-04-07T13:54:22.291Z,22.28
2018-04-07T13:56:50.691Z,22.18
2018-04-07T13:59:18.147Z,22.11
2018-04-07T14:01:45.601Z,22.02
2018-04-07T14:04:13.070Z,22.17
2018-04-07T14:06:40.525Z,22.29
2018-04-07T14:09:07.982Z,22.29
2018-04-07T14:11:35.610Z,22.15
2018-04-07T14:14:03.002Z,22.26
2018-04-07T14:16:30.448Z,22.53
2018-04-07T14:18:58.116Z,22.50
2018-04-07T14:21:25.579Z,22.53
2018-04-07T14:23:53.022Z,22.65
2018-04-07T14:26:20.456Z,22.50
2018-04-07T14:28:47.844Z,22.51
2018-04-07T14:31:15.262Z,22.41
2018-04-07T14:33:42.650Z,22.45
2018-04-07T14:36:10.052Z,22.62
2018-04-07T14:38:37.454Z,22.67
2018-04-07T14:41:04.918Z,22.69
2018-04-07T14:43:32.391Z,22.56
2018-04-07T14:45:59.835Z,22.36
2018-04-07T14:48:27.295Z,22.45
2018-04-07T14:50:54.752Z,22.52
2018-04-07T14:53:22.210Z,22.78
2018-04-07T14:55:49.682Z,23.06
2018-04-07T14:58:17.126Z,23.13
2018-04-07T15:00:44.632Z,22.98
2018-04-07T15:03:12.070Z,22.96
2018-04-07T15:05:39.498Z,23.02
2018-04-07T15:08:06.958Z,23.00
2018-04-07T15:10:34.351Z,22.89
2018-04-07T15:13:01.742Z,23.07
2018-04-07T15:15:30.253Z,23.14
2018-04-07T15:17:57.709Z,22.91
2018-04-07T15:20:25.177Z,22.97
2018-04-07T15:22:52.625Z,23.03
2018-04-07T15:25:20.062Z,22.97
2018-04-07T15:27:47.558Z,23.02
2018-04-07T15:30:15.001Z,22.88
2018-04-07T15:32:42.457Z,22.94
2018-04-07T15:35:10.334Z,23.05
2018-04-07T15:37:37.716Z,22.99
2018-04-07T15:40:05.137Z,23.06
2018-04-07T15:42:32.594Z,23.00
2018-04-07T15:45:00.398Z,22.92
2018-04-07T15:47:27.817Z,22.96
2018-04-07T15:49:55.285Z,23.07
2018-04-07T15:52:22.734Z,22.93
2018-04-07T15:54:50.201Z,22.94
2018-04-07T15:57:17.660Z,23.08
2018-04-07T15:59:45.109Z,22.97
2018-04-07T16:02:12.583Z,23.03
2018-04-07T16:04:40.033Z,23.09
2018-04-07T16:07:07.518Z,22.99
2018-04-07T16:09:34.956Z,22.85
2018-04-07T16:12:02.418Z,22.93
2018-04-07T16:14:29.868Z,22.93
2018-04-07T16:16:57.322Z,22.76
2018-04-07T16:19:24.832Z,22.69
2018-04-07T16:21:52.230Z,22.66
2018-04-07T16:24:19.692Z,22.68
2018-04-07T16:26:47.078Z,22.66
2018-04-07T16:29:14.491Z,22.79
2018-04-07T16:31:41.888Z,22.71
2018-04-07T16:34:09.323Z,22.58
2018-04-07T16:36:36.700Z,22.46
2018-04-07T16:39:04.145Z,22.59
2018-04-07T16:41:32.004Z,22.40
2018-04-07T16:43:59.441Z,22.33
2018-04-07T16:46:26.822Z,22.26
2018-04-07T16:48:54.297Z,22.30
2018-04-07T16:51:21.722Z,22.26
2018-04-07T16:53:49.194Z,22.24
2018-04-07T16:56:16.647Z,22.07
2018-04-07T16:58:44.098Z,22.08
2018-04-07T17:01:11.554Z,21.97
2018-04-07T17:03:39.006Z,21.92
2018-04-07T17:06:06.488Z,21.70
2018-04-07T17:08:33.946Z,21.52
2018-04-07T17:11:01.400Z,21.36
2018-04-07T17:13:29.774Z,21.35
2018-04-07T17:15:57.237Z,21.26
2018-04-07T17:18:24.695Z,21.19
2018-04-07T17:20:52.256Z,21.11
2018-04-07T17:23:19.707Z,20.85
2018-04-07T17:25:47.091Z,20.73
2018-04-07T17:28:14.529Z,20.60
2018-04-07T17:30:42.400Z,20.52
2018-04-07T17:33:09.840Z,20.38
2018-04-07T17:35:37.817Z,20.20
2018-04-07T17:38:05.282Z,19.93
2018-04-07T17:40:33.636Z,19.99
2018-04-07T17:43:01.101Z,19.88
2018-04-07T17:45:28.575Z,19.82
2018-04-07T17:47:56.033Z,19.73
2018-04-07T17:50:23.460Z,19.62
2018-04-07T17:52:51.038Z,19.51
2018-04-07T17:55:18.497Z,19.54
2018-04-07T17:57:45.918Z,19.55
2018-04-07T18:00:13.325Z,19.51
2018-04-07T18:02:40.787Z,19.39
2018-04-07T18:05:08.337Z,19.34
2018-04-07T18:07:35.709Z,19.35
2018-04-07T18:10:03.154Z,19.36
2018-04-07T18:12:30.615Z,19.29
2018-04-07T18:14:58.173Z,19.16
2018-04-07T18:17:25.617Z,18.99
2018-04-07T18:19:53.082Z,18.89
2018-04-07T18:22:20.452Z,18.84
2018-04-07T18:24:48.019Z,18.74
2018-04-07T18:27:15.449Z,18.66
2018-04-07T18:29:42.930Z,18.61
2018-04-07T18:32:10.372Z,18.64
2018-04-07T18:34:37.829Z,18.71
2018-04-07T18:37:05.491Z,18.73
2018-04-07T18:39:33.046Z,18.73
2018-04-07T18:42:00.508Z,18.62
2018-04-07T18:44:30.930Z,18.49
2018-04-07T18:46:58.398Z,18.52
2018-04-07T18:49:25.846Z,18.49
2018-04-07T18:51:53.420Z,18.48
2018-04-07T18:54:20.872Z,18.43
2018-04-07T18:56:48.258Z,18.41
2018-04-07T18:59:15.674Z,18.30
2018-04-07T19:01:43.238Z,18.22
2018-04-07T19:04:10.657Z,18.09
2018-04-07T19:06:38.064Z,17.97
2018-04-07T19:09:06.578Z,17.91
2018-04-07T19:11:34.005Z,17.82
2018-04-07T19:14:01.381Z,17.71
2018-04-07T19:16:28.906Z,17.52
2018-04-07T19:18:56.280Z,17.38
2018-04-07T19:21:23.681Z,17.20
2018-04-07T19:23:51.090Z,17.05
2018-04-07T19:26:18.680Z,16.90
2018-04-07T19:28:46.086Z,16.76
2018-04-07T19:31:13.487Z,16.66
2018-04-07T19:33:40.898Z,16.52
2018-04-07T19:36:09.171Z,16.52
2018-04-07T19:38:37.576Z,16.62
2018-04-07T19:41:04.961Z,16.56
2018-04-07T19:43:32.347Z,16.39
2018-04-07T19:45:59.760Z,16.32
2018-04-07T19:48:27.161Z,16.14
2018-04-07T19:50:54.553Z,15.95
2018-04-07T19:53:21.953Z,16.00
2018-04-07T19:55:49.343Z,16.22
2018-04-07T19:58:16.746Z,16.29
2018-04-07T20:00:44.155Z,16.18
2018-04-07T20:03:11.553Z,16.12
2018-04-07T20:05:38.974Z,16.14
2018-04-07T20:08:06.391Z,16.07
2018-04-07T20:10:33.800Z,15.90
2018-04-07T20:13:01.198Z,15.81
2018-04-07T20:15:28.622Z,15.82
2018-04-07T20:17:56.031Z,15.81
2018-04-07T20:20:23.452Z,15.85
2018-04-07T20:22:50.833Z,15.79
2018-04-07T20:25:18.231Z,15.80
2018-04-07T20:27:45.642Z,15.80
2018-04-07T20:30:13.048Z,15.79
2018-04-07T20:32:40.455Z,15.78
2018-04-07T20:35:07.846Z,15.84
2018-04-07T20:37:35.249Z,15.91
2018-04-07T20:40:02.654Z,15.78
2018-04-07T20:42:30.067Z,15.69
2018-04-07T20:44:57.463Z,15.53
2018-04-07T20:47:24.879Z,15.40
2018-04-07T20:49:52.299Z,15.34
2018-04-07T20:52:19.687Z,15.28
2018-04-07T20:54:47.146Z,15.18
2018-04-07T20:57:14.511Z,15.18
2018-04-07T20:59:41.925Z,15.15
2018-04-07T21:02:09.314Z,15.19
2018-04-07T21:04:36.726Z,15.13
2018-04-07T21:07:04.117Z,15.04
2018-04-07T21:09:31.527Z,15.05
2018-04-07T21:11:58.928Z,14.95
2018-04-07T21:14:26.329Z,14.77
2018-04-07T21:16:53.733Z,14.72
2018-04-07T21:19:21.145Z,14.54
2018-04-07T21:21:48.548Z,14.38
2018-04-07T21:24:15.946Z,14.28
2018-04-07T21:26:43.792Z,14.30
2018-04-07T21:29:11.575Z,14.25
2018-04-07T21:31:38.998Z,14.24
2018-04-07T21:34:06.425Z,14.32
2018-04-07T21:36:33.815Z,14.45
2018-04-07T21:39:01.469Z,14.50
2018-04-07T21:41:28.872Z,14.58
2018-04-07T21:43:56.281Z,14.66
2018-04-07T21:46:23.675Z,14.37
2018-04-07T21:48:51.090Z,13.68
2018-04-07T21:51:18.518Z,13.36
2018-04-07T21:53:45.919Z,13.36
2018-04-07T21:56:13.310Z,13.44
2018-04-07T21:58:40.733Z,13.72
2018-04-07T22:02:38.104Z,13.75
2018-04-07T22:05:05.534Z,13.71
2018-04-07T22:07:32.939Z,13.62
2018-04-07T22:10:00.345Z,13.83
2018-04-07T22:12:27.736Z,13.94
2018-04-07T22:14:55.137Z,14.02
2018-04-07T22:17:22.541Z,14.07
2018-04-07T22:19:49.975Z,14.00
2018-04-07T22:22:17.411Z,13.85
2018-04-07T22:24:44.826Z,13.64
2018-04-07T22:27:12.231Z,13.46
2018-04-07T22:29:39.630Z,13.14
2018-04-07T22:32:07.097Z,12.72
2018-04-07T22:34:34.530Z,12.49
2018-04-07T22:37:01.915Z,12.28
2018-04-07T22:39:29.340Z,12.35
2018-04-07T22:41:56.784Z,12.33
2018-04-07T22:44:24.182Z,12.28
2018-04-07T22:46:51.603Z,12.25
2018-04-07T22:49:18.985Z,12.24
2018-04-07T22:51:46.393Z,12.13
2018-04-07T22:54:14.720Z,11.80
2018-04-07T22:56:42.150Z,11.62
2018-04-07T22:59:09.583Z,11.49
2018-04-07T23:01:36.986Z,11.43
2018-04-07T23:04:04.382Z,11.20
2018-04-07T23:06:31.815Z,11.18
2018-04-07T23:08:59.206Z,10.97
2018-04-07T23:11:26.627Z,10.86
2018-04-07T23:13:54.062Z,10.76
2018-04-07T23:16:21.510Z,10.74
2018-04-07T23:18:48.958Z,10.64
2018-04-07T23:21:16.434Z,10.63
2018-04-07T23:23:43.898Z,10.57
2018-04-07T23:26:11.349Z,10.37
2018-04-07T23:28:38.821Z,10.26
2018-04-07T23:31:06.264Z,10.20
2018-04-07T23:33:33.730Z,10.13
2018-04-07T23:36:01.188Z,10.06
2018-04-07T23:38:28.647Z,10.13
2018-04-07T23:40:56.099Z,10.11
2018-04-07T23:43:23.564Z,10.17
2018-04-07T23:45:51.911Z,10.19
2018-04-07T23:48:19.376Z,10.19
2018-04-07T23:50:46.854Z,10.27
2018-04-07T23:53:14.299Z,10.54
2018-04-07T23:55:41.770Z,10.83
2018-04-07T23:58:09.226Z,11.15
